Pierre A — TCA3529 — position and weather

sailwx.info

Track history (hours):
 
Tides and Currents Weather Stations Pressure Air Temp Water Temp Dewpoint Dewpoint Depression Visibility Wind Speed Wind Dir Waves Ship Positions

Pierre A

Last reported at 2018-Feb-23 17:33 UTC. Time now 2018-Feb-24 02:36 UTC.
Position N 32°58' E 034°02'.

Length 214 m; draft 8.7 m.

Type: Ship (hazmat cat A). MMSI: 271044163.

Date/timePositionNaut miles runAvg speedWind from/ knotsBaromVisibWave heightAir tempDewpointWater temp
2018-Feb-23 17:33N 32°58' E 034°02'720.1
2018-Feb-23 17:13N 32°52' E 033°60'420.0
2018-Feb-23 17:00N 32°48' E 033°59'1020.1
2018-Feb-23 16:29N 32°38' E 033°55'1020.0
2018-Feb-23 16:00N 32°29' E 033°53'1020.0
2018-Feb-23 15:30N 32°19' E 033°50'2417.1
2018-Feb-23 14:07N 32°01' E 034°08'319.5
2018-Feb-23 13:57N 31°60' E 034°12'24 1.4
2018-Feb-22 20:39N 31°51' E 034°38'1 6.4
2018-Feb-22 20:30N 31°51' E 034°38'3 0.8
2018-Feb-22 16:39N 31°49' E 034°35'0 0.0
2018-Feb-22 16:27N 31°49' E 034°35'0 0.0
2018-Feb-22 14:27N 31°49' E 034°35'54416.7
2018-Feb-21 05:48N 37°26' E 025°55'518.1
2018-Feb-21 05:30N 37°30' E 025°52'1019.5
2018-Feb-21 05:00N 37°40' E 025°50'  
2018-Feb-17 23:32N 44°28' E 037°32'215.3
2018-Feb-17 23:24N 44°29' E 037°34'718.2
2018-Feb-17 23:00N 44°34' E 037°42'815.9
2018-Feb-17 22:30N 44°39' E 037°50'4 8.7
2018-Feb-17 22:00N 44°43' E 037°48'1 1.8
2018-Feb-17 21:25N 44°44' E 037°47'0 0.0
2018-Feb-17 20:58N 44°44' E 037°47'0 0.0
2018-Feb-17 20:28N 44°44' E 037°47'0 0.0
2018-Feb-17 19:58N 44°44' E 037°47'0 0.0
2018-Feb-17 19:28N 44°44' E 037°47'0 0.0
2018-Feb-17 18:58N 44°44' E 037°47'0 0.0
2018-Feb-17 18:28N 44°44' E 037°47'0 0.0
2018-Feb-17 17:55N 44°44' E 037°47'0 0.0
2018-Feb-17 17:28N 44°44' E 037°47'0 0.0
2018-Feb-17 16:58N 44°44' E 037°47'0 0.0
2018-Feb-17 16:28N 44°44' E 037°47'0 0.0
2018-Feb-17 15:55N 44°44' E 037°47'0 0.0
2018-Feb-17 15:22N 44°44' E 037°47'0 0.0
2018-Feb-17 14:58N 44°44' E 037°47'0 0.0
2018-Feb-17 14:28N 44°44' E 037°47'0 0.0
2018-Feb-17 13:55N 44°44' E 037°47'0 0.0
2018-Feb-17 13:28N 44°44' E 037°47'0 0.0
2018-Feb-17 12:58N 44°44' E 037°47'0 0.0
2018-Feb-17 12:28N 44°44' E 037°47'0 0.0
2018-Feb-17 11:58N 44°44' E 037°47'0 0.0
2018-Feb-17 11:28N 44°44' E 037°47'0 0.0
2018-Feb-17 10:58N 44°44' E 037°47'0 0.0
2018-Feb-17 10:25N 44°44' E 037°47'0 0.0
2018-Feb-17 09:58N 44°44' E 037°47'0 0.0
2018-Feb-17 09:25N 44°44' E 037°47'0 0.0
2018-Feb-17 08:55N 44°44' E 037°47'0 0.0
2018-Feb-17 08:28N 44°44' E 037°47'0 0.0
2018-Feb-17 07:58N 44°44' E 037°47'0 0.0
2018-Feb-17 07:28N 44°44' E 037°47'0 0.0
2018-Feb-17 06:58N 44°44' E 037°47'0 0.0
2018-Feb-17 06:28N 44°44' E 037°47'0 0.0
2018-Feb-17 05:58N 44°44' E 037°47'0 0.0
2018-Feb-17 05:28N 44°44' E 037°47'0 0.0
2018-Feb-17 04:58N 44°44' E 037°47'0 0.0
2018-Feb-17 04:28N 44°44' E 037°47'0 0.0
2018-Feb-17 03:58N 44°44' E 037°47'0 0.0
2018-Feb-17 03:28N 44°44' E 037°47'0 0.0
2018-Feb-17 02:58N 44°44' E 037°47'0 0.0
2018-Feb-17 02:28N 44°44' E 037°47'0 0.0
2018-Feb-17 01:58N 44°44' E 037°47'0 0.0
2018-Feb-17 01:25N 44°44' E 037°47'0 0.0
2018-Feb-17 00:58N 44°44' E 037°47'0 0.0
2018-Feb-17 00:28N 44°44' E 037°47'0 0.0
2018-Feb-16 23:58N 44°44' E 037°47'0 0.0
2018-Feb-16 23:25N 44°44' E 037°47'0 0.0
2018-Feb-16 22:55N 44°44' E 037°47'0 0.0
2018-Feb-16 22:28N 44°44' E 037°47'0 0.0
2018-Feb-16 21:49N 44°44' E 037°47'0 0.0
2018-Feb-16 21:28N 44°44' E 037°47'0 0.0
2018-Feb-16 20:58N 44°44' E 037°47'0 0.0
2018-Feb-16 20:28N 44°44' E 037°47'0 0.0
2018-Feb-16 19:58N 44°44' E 037°47'0 0.0
2018-Feb-16 19:28N 44°44' E 037°47'0 0.0
2018-Feb-16 18:58N 44°44' E 037°47'0 0.0
2018-Feb-16 18:28N 44°44' E 037°47'0 0.0
2018-Feb-16 17:55N 44°44' E 037°47'0 0.0
2018-Feb-16 17:28N 44°44' E 037°47'0 0.0
2018-Feb-16 16:58N 44°44' E 037°47'0 0.0
2018-Feb-16 16:25N 44°44' E 037°47'0 0.0
2018-Feb-16 15:55N 44°44' E 037°47'0 0.0
2018-Feb-16 15:28N 44°44' E 037°47'0 0.0
2018-Feb-16 14:58N 44°44' E 037°47'0 0.0
2018-Feb-16 14:28N 44°44' E 037°47'0 0.0
2018-Feb-16 13:58N 44°44' E 037°47'0 0.0
2018-Feb-16 13:25N 44°44' E 037°47'0 0.0
2018-Feb-16 12:58N 44°44' E 037°47'0 0.0
2018-Feb-16 12:28N 44°44' E 037°47'0 0.0
2018-Feb-16 11:58N 44°44' E 037°47'0 0.0
2018-Feb-16 11:28N 44°44' E 037°47'0 0.0
2018-Feb-16 10:58N 44°44' E 037°47'0 0.0
2018-Feb-16 10:28N 44°44' E 037°47'0 0.0
2018-Feb-16 09:58N 44°44' E 037°47'0 0.0
2018-Feb-16 09:28N 44°44' E 037°47'0 0.0
2018-Feb-16 08:57N 44°44' E 037°47'0 0.7
2018-Feb-16 08:31N 44°43' E 037°47'2 4.3
2018-Feb-16 08:00N 44°42' E 037°49'4 7.7
2018-Feb-16 07:30N 44°38' E 037°51'4 7.5
2018-Feb-16 07:00N 44°35' E 037°51'715.0
2018-Feb-16 06:30N 44°27' E 037°49'714.5
2018-Feb-16 06:00N 44°20' E 037°47'918.3
2018-Feb-16 05:30N 44°19' E 037°34'713.4
2018-Feb-16 05:00N 44°18' E 037°25'1 1.0
2018-Feb-16 04:30N 44°18' E 037°25'1 1.0
2018-Feb-16 03:46N 44°18' E 037°27'0 1.1
2018-Feb-16 03:30N 44°18' E 037°27'1 0.9
2018-Feb-16 02:57N 44°18' E 037°28'0 0.9
2018-Feb-16 02:28N 44°18' E 037°28'0 1.0
2018-Feb-16 01:59N 44°19' E 037°29'0 0.9
2018-Feb-16 01:30N 44°19' E 037°29'0 0.9
2018-Feb-16 01:00N 44°19' E 037°30'0 0.9
2018-Feb-16 00:30N 44°19' E 037°30'1 0.9
2018-Feb-15 23:56N 44°19' E 037°31'0 0.9
2018-Feb-15 23:30N 44°19' E 037°32'1 0.9
2018-Feb-15 22:52N 44°19' E 037°33'0 0.9
2018-Feb-15 22:29N 44°19' E 037°33'0 0.8
2018-Feb-15 22:01N 44°20' E 037°33'0 0.9
2018-Feb-15 21:30N 44°20' E 037°34'0 1.0
2018-Feb-15 21:00N 44°20' E 037°35'1 1.0
2018-Feb-15 20:30N 44°20' E 037°35'0 1.0
2018-Feb-15 20:00N 44°20' E 037°36'1 1.0
2018-Feb-15 19:24N 44°20' E 037°37'1 1.0
2018-Feb-15 18:44N 44°20' E 037°38'0 0.8
2018-Feb-15 18:30N 44°20' E 037°38'0 0.9
2018-Feb-15 18:00N 44°20' E 037°39'1 1.3
2018-Feb-15 17:30N 44°21' E 037°39'5 9.9
2018-Feb-15 17:00N 44°20' E 037°32'713.8
2018-Feb-15 16:30N 44°20' E 037°22'612.2
2018-Feb-15 15:59N 44°18' E 037°14'41512.8
2018-Feb-14 07:40N 40°59' E 028°60'2 9.7
2018-Feb-14 07:30N 40°57' E 028°60'815.9
2018-Feb-14 06:58N 40°50' E 029°04'817.3
2018-Feb-14 06:30N 40°45' E 029°13'714.5
2018-Feb-14 06:00N 40°44' E 029°23'812.2
2018-Feb-14 05:23N 40°45' E 029°33'  
Track history (hours):
 
Tides and Currents Weather Stations Pressure Air Temp Water Temp Dewpoint Dewpoint Depression Visibility Wind Speed Wind Dir Waves Ship Positions

Pierre A

Last reported at 2018-Feb-23 17:33 UTC. Time now 2018-Feb-24 02:36 UTC.
Position N 32°58' E 034°02'.

Length 214 m; draft 8.7 m.

Type: Ship (hazmat cat A). MMSI: 271044163.

Date/timePositionNaut miles runAvg speedWind from/ knotsBaromVisibWave heightAir tempDewpointWater temp
2018-Feb-23 17:33N 32°58' E 034°02'720.1
2018-Feb-23 17:13N 32°52' E 033°60'420.0
2018-Feb-23 17:00N 32°48' E 033°59'1020.1
2018-Feb-23 16:29N 32°38' E 033°55'1020.0
2018-Feb-23 16:00N 32°29' E 033°53'1020.0
2018-Feb-23 15:30N 32°19' E 033°50'2417.1
2018-Feb-23 14:07N 32°01' E 034°08'319.5
2018-Feb-23 13:57N 31°60' E 034°12'24 1.4
2018-Feb-22 20:39N 31°51' E 034°38'1 6.4
2018-Feb-22 20:30N 31°51' E 034°38'3 0.8
2018-Feb-22 16:39N 31°49' E 034°35'0 0.0
2018-Feb-22 16:27N 31°49' E 034°35'0 0.0
2018-Feb-22 14:27N 31°49' E 034°35'54416.7
2018-Feb-21 05:48N 37°26' E 025°55'518.1
2018-Feb-21 05:30N 37°30' E 025°52'1019.5
2018-Feb-21 05:00N 37°40' E 025°50'  
2018-Feb-17 23:32N 44°28' E 037°32'215.3
2018-Feb-17 23:24N 44°29' E 037°34'718.2
2018-Feb-17 23:00N 44°34' E 037°42'815.9
2018-Feb-17 22:30N 44°39' E 037°50'4 8.7
2018-Feb-17 22:00N 44°43' E 037°48'1 1.8
2018-Feb-17 21:25N 44°44' E 037°47'0 0.0
2018-Feb-17 20:58N 44°44' E 037°47'0 0.0
2018-Feb-17 20:28N 44°44' E 037°47'0 0.0
2018-Feb-17 19:58N 44°44' E 037°47'0 0.0
2018-Feb-17 19:28N 44°44' E 037°47'0 0.0
2018-Feb-17 18:58N 44°44' E 037°47'0 0.0
2018-Feb-17 18:28N 44°44' E 037°47'0 0.0
2018-Feb-17 17:55N 44°44' E 037°47'0 0.0
2018-Feb-17 17:28N 44°44' E 037°47'0 0.0
2018-Feb-17 16:58N 44°44' E 037°47'0 0.0
2018-Feb-17 16:28N 44°44' E 037°47'0 0.0
2018-Feb-17 15:55N 44°44' E 037°47'0 0.0
2018-Feb-17 15:22N 44°44' E 037°47'0 0.0
2018-Feb-17 14:58N 44°44' E 037°47'0 0.0
2018-Feb-17 14:28N 44°44' E 037°47'0 0.0
2018-Feb-17 13:55N 44°44' E 037°47'0 0.0
2018-Feb-17 13:28N 44°44' E 037°47'0 0.0
2018-Feb-17 12:58N 44°44' E 037°47'0 0.0
2018-Feb-17 12:28N 44°44' E 037°47'0 0.0
2018-Feb-17 11:58N 44°44' E 037°47'0 0.0
2018-Feb-17 11:28N 44°44' E 037°47'0 0.0
2018-Feb-17 10:58N 44°44' E 037°47'0 0.0
2018-Feb-17 10:25N 44°44' E 037°47'0 0.0
2018-Feb-17 09:58N 44°44' E 037°47'0 0.0
2018-Feb-17 09:25N 44°44' E 037°47'0 0.0
2018-Feb-17 08:55N 44°44' E 037°47'0 0.0
2018-Feb-17 08:28N 44°44' E 037°47'0 0.0
2018-Feb-17 07:58N 44°44' E 037°47'0 0.0
2018-Feb-17 07:28N 44°44' E 037°47'0 0.0
2018-Feb-17 06:58N 44°44' E 037°47'0 0.0
2018-Feb-17 06:28N 44°44' E 037°47'0 0.0
2018-Feb-17 05:58N 44°44' E 037°47'0 0.0
2018-Feb-17 05:28N 44°44' E 037°47'0 0.0
2018-Feb-17 04:58N 44°44' E 037°47'0 0.0
2018-Feb-17 04:28N 44°44' E 037°47'0 0.0
2018-Feb-17 03:58N 44°44' E 037°47'0 0.0
2018-Feb-17 03:28N 44°44' E 037°47'0 0.0
2018-Feb-17 02:58N 44°44' E 037°47'0 0.0
2018-Feb-17 02:28N 44°44' E 037°47'0 0.0
2018-Feb-17 01:58N 44°44' E 037°47'0 0.0
2018-Feb-17 01:25N 44°44' E 037°47'0 0.0
2018-Feb-17 00:58N 44°44' E 037°47'0 0.0
2018-Feb-17 00:28N 44°44' E 037°47'0 0.0
2018-Feb-16 23:58N 44°44' E 037°47'0 0.0
2018-Feb-16 23:25N 44°44' E 037°47'0 0.0
2018-Feb-16 22:55N 44°44' E 037°47'0 0.0
2018-Feb-16 22:28N 44°44' E 037°47'0 0.0
2018-Feb-16 21:49N 44°44' E 037°47'0 0.0
2018-Feb-16 21:28N 44°44' E 037°47'0 0.0
2018-Feb-16 20:58N 44°44' E 037°47'0 0.0
2018-Feb-16 20:28N 44°44' E 037°47'0 0.0
2018-Feb-16 19:58N 44°44' E 037°47'0 0.0
2018-Feb-16 19:28N 44°44' E 037°47'0 0.0
2018-Feb-16 18:58N 44°44' E 037°47'0 0.0
2018-Feb-16 18:28N 44°44' E 037°47'0 0.0
2018-Feb-16 17:55N 44°44' E 037°47'0 0.0
2018-Feb-16 17:28N 44°44' E 037°47'0 0.0
2018-Feb-16 16:58N 44°44' E 037°47'0 0.0
2018-Feb-16 16:25N 44°44' E 037°47'0 0.0
2018-Feb-16 15:55N 44°44' E 037°47'0 0.0
2018-Feb-16 15:28N 44°44' E 037°47'0 0.0
2018-Feb-16 14:58N 44°44' E 037°47'0 0.0
2018-Feb-16 14:28N 44°44' E 037°47'0 0.0
2018-Feb-16 13:58N 44°44' E 037°47'0 0.0
2018-Feb-16 13:25N 44°44' E 037°47'0 0.0
2018-Feb-16 12:58N 44°44' E 037°47'0 0.0
2018-Feb-16 12:28N 44°44' E 037°47'0 0.0
2018-Feb-16 11:58N 44°44' E 037°47'0 0.0
2018-Feb-16 11:28N 44°44' E 037°47'0 0.0
2018-Feb-16 10:58N 44°44' E 037°47'0 0.0
2018-Feb-16 10:28N 44°44' E 037°47'0 0.0
2018-Feb-16 09:58N 44°44' E 037°47'0 0.0
2018-Feb-16 09:28N 44°44' E 037°47'0 0.0
2018-Feb-16 08:57N 44°44' E 037°47'0 0.7
2018-Feb-16 08:31N 44°43' E 037°47'2 4.3
2018-Feb-16 08:00N 44°42' E 037°49'4 7.7
2018-Feb-16 07:30N 44°38' E 037°51'4 7.5
2018-Feb-16 07:00N 44°35' E 037°51'715.0
2018-Feb-16 06:30N 44°27' E 037°49'714.5
2018-Feb-16 06:00N 44°20' E 037°47'918.3
2018-Feb-16 05:30N 44°19' E 037°34'713.4
2018-Feb-16 05:00N 44°18' E 037°25'1 1.0
2018-Feb-16 04:30N 44°18' E 037°25'1 1.0
2018-Feb-16 03:46N 44°18' E 037°27'0 1.1
2018-Feb-16 03:30N 44°18' E 037°27'1 0.9
2018-Feb-16 02:57N 44°18' E 037°28'0 0.9
2018-Feb-16 02:28N 44°18' E 037°28'0 1.0
2018-Feb-16 01:59N 44°19' E 037°29'0 0.9
2018-Feb-16 01:30N 44°19' E 037°29'0 0.9
2018-Feb-16 01:00N 44°19' E 037°30'0 0.9
2018-Feb-16 00:30N 44°19' E 037°30'1 0.9
2018-Feb-15 23:56N 44°19' E 037°31'0 0.9
2018-Feb-15 23:30N 44°19' E 037°32'1 0.9
2018-Feb-15 22:52N 44°19' E 037°33'0 0.9
2018-Feb-15 22:29N 44°19' E 037°33'0 0.8
2018-Feb-15 22:01N 44°20' E 037°33'0 0.9
2018-Feb-15 21:30N 44°20' E 037°34'0 1.0
2018-Feb-15 21:00N 44°20' E 037°35'1 1.0
2018-Feb-15 20:30N 44°20' E 037°35'0 1.0
2018-Feb-15 20:00N 44°20' E 037°36'1 1.0
2018-Feb-15 19:24N 44°20' E 037°37'1 1.0
2018-Feb-15 18:44N 44°20' E 037°38'0 0.8
2018-Feb-15 18:30N 44°20' E 037°38'0 0.9
2018-Feb-15 18:00N 44°20' E 037°39'1 1.3
2018-Feb-15 17:30N 44°21' E 037°39'5 9.9
2018-Feb-15 17:00N 44°20' E 037°32'713.8
2018-Feb-15 16:30N 44°20' E 037°22'612.2
2018-Feb-15 15:59N 44°18' E 037°14'41512.8
2018-Feb-14 07:40N 40°59' E 028°60'2 9.7
2018-Feb-14 07:30N 40°57' E 028°60'815.9
2018-Feb-14 06:58N 40°50' E 029°04'817.3
2018-Feb-14 06:30N 40°45' E 029°13'714.5
2018-Feb-14 06:00N 40°44' E 029°23'812.2
2018-Feb-14 05:23N 40°45' E 029°33'  

Dump ship's entire track history